createdAt,value
2022-11-12T00:02:41.504Z,13.19
2022-11-12T00:05:28.665Z,13.09
2022-11-12T00:08:15.688Z,13.05
2022-11-12T00:11:04.996Z,13.02
2022-11-12T00:13:53.771Z,12.98
2022-11-12T00:16:40.601Z,12.93
2022-11-12T00:19:27.337Z,12.93
2022-11-12T00:22:15.227Z,13.01
2022-11-12T00:25:02.279Z,13.02
2022-11-12T00:27:49.377Z,13.00
2022-11-12T00:30:40.176Z,13.02
2022-11-12T00:33:27.455Z,13.05
2022-11-12T00:36:14.610Z,13.13
2022-11-12T00:39:01.593Z,13.08
2022-11-12T00:41:48.829Z,13.08
2022-11-12T00:44:36.680Z,13.14
2022-11-12T00:47:24.775Z,13.22
2022-11-12T00:50:12.026Z,13.23
2022-11-12T00:53:01.953Z,13.22
2022-11-12T00:55:48.780Z,13.21
2022-11-12T00:58:37.492Z,13.19
2022-11-12T01:01:24.486Z,13.23
2022-11-12T01:04:13.050Z,13.12
2022-11-12T01:06:59.931Z,13.07
2022-11-12T01:09:47.897Z,13.06
2022-11-12T01:12:35.158Z,13.03
2022-11-12T01:15:22.276Z,13.07
2022-11-12T01:18:09.103Z,12.98
2022-11-12T01:21:04.609Z,13.00
2022-11-12T01:23:51.513Z,13.00
2022-11-12T01:26:38.872Z,13.08
2022-11-12T01:29:26.185Z,13.11
2022-11-12T01:32:14.038Z,13.08
2022-11-12T01:35:00.912Z,13.10
2022-11-12T01:37:48.928Z,13.12
2022-11-12T01:40:36.107Z,13.14
2022-11-12T01:43:23.124Z,13.08
2022-11-12T01:46:16.148Z,13.12
2022-11-12T01:49:06.971Z,13.20
2022-11-12T01:51:58.244Z,13.18
2022-11-12T01:54:51.511Z,13.09
2022-11-12T01:57:39.563Z,13.01
2022-11-12T02:00:26.809Z,13.07
2022-11-12T02:03:17.134Z,12.93
2022-11-12T02:06:09.112Z,12.90
2022-11-12T02:08:57.773Z,13.02
2022-11-12T02:11:46.072Z,13.05
2022-11-12T02:14:32.512Z,12.97
2022-11-12T02:17:19.578Z,12.99
2022-11-12T02:20:09.943Z,12.96
2022-11-12T02:22:58.091Z,12.87
2022-11-12T02:25:44.921Z,12.92
2022-11-12T02:28:34.166Z,12.91
2022-11-12T02:31:21.097Z,12.86
2022-11-12T02:34:08.347Z,12.66
2022-11-12T02:36:55.547Z,12.73
2022-11-12T02:39:44.267Z,12.79
2022-11-12T02:42:31.155Z,12.77
2022-11-12T02:45:18.881Z,12.86
2022-11-12T02:48:06.344Z,12.92
2022-11-12T02:50:53.433Z,12.96
2022-11-12T02:53:40.439Z,12.98
2022-11-12T02:56:28.879Z,13.00
2022-11-12T02:59:16.811Z,13.02
2022-11-12T03:02:03.862Z,13.06
2022-11-12T03:04:51.128Z,13.07
2022-11-12T03:07:38.433Z,13.08
2022-11-12T03:10:25.441Z,13.07
2022-11-12T03:13:13.927Z,13.17
2022-11-12T03:16:01.887Z,13.10
2022-11-12T03:18:49.143Z,13.08
2022-11-12T03:21:35.885Z,13.07
2022-11-12T03:24:23.035Z,13.08
2022-11-12T03:27:09.880Z,13.08
2022-11-12T03:29:57.943Z,13.09
2022-11-12T03:32:44.718Z,13.07
2022-11-12T03:35:32.201Z,13.07
2022-11-12T03:38:19.385Z,13.06
2022-11-12T03:41:06.722Z,13.14
2022-11-12T03:43:53.876Z,13.09
2022-11-12T03:46:44.340Z,13.06
2022-11-12T03:49:31.808Z,13.15
2022-11-12T03:52:19.131Z,13.08
2022-11-12T03:55:07.261Z,13.03
2022-11-12T03:57:55.057Z,13.11
2022-11-12T04:00:41.833Z,13.16
2022-11-12T04:03:31.777Z,13.14
2022-11-12T04:06:36.363Z,13.09
2022-11-12T04:09:23.420Z,13.11
2022-11-12T04:12:23.888Z,13.10
2022-11-12T04:15:11.234Z,13.17
2022-11-12T04:18:15.573Z,13.15
2022-11-12T04:21:17.367Z,13.14
2022-11-12T04:24:04.530Z,13.08
2022-11-12T04:26:50.414Z,13.14
2022-11-12T04:29:54.841Z,13.08
2022-11-12T04:32:49.480Z,13.17
2022-11-12T04:35:36.443Z,13.12
2022-11-12T04:38:25.313Z,13.14
2022-11-12T04:41:29.959Z,13.22
2022-11-12T04:44:34.281Z,13.24
2022-11-12T04:47:20.926Z,13.19
2022-11-12T04:50:14.013Z,13.10
2022-11-12T04:53:01.217Z,13.17
2022-11-12T04:55:52.580Z,13.15
2022-11-12T04:58:39.459Z,13.29
2022-11-12T05:01:26.357Z,13.25
2022-11-12T05:04:13.440Z,13.26
2022-11-12T05:07:01.116Z,13.24
2022-11-12T05:09:48.441Z,13.26
2022-11-12T05:12:36.527Z,13.26
2022-11-12T05:15:23.678Z,13.27
2022-11-12T05:18:10.805Z,13.27
2022-11-12T05:20:57.949Z,13.41
2022-11-12T05:23:44.683Z,13.52
2022-11-12T05:26:31.296Z,13.51
2022-11-12T05:29:20.137Z,13.65
2022-11-12T05:32:07.801Z,13.78
2022-11-12T05:34:55.101Z,13.78
2022-11-12T05:37:41.974Z,13.90
2022-11-12T05:40:28.689Z,13.94
2022-11-12T05:43:15.439Z,14.04
2022-11-12T05:46:03.908Z,14.10
2022-11-12T05:48:50.753Z,14.12
2022-11-12T05:51:38.381Z,14.26
2022-11-12T05:54:26.687Z,14.33
2022-11-12T05:57:13.436Z,14.37
2022-11-12T06:00:00.575Z,14.47
2022-11-12T06:02:48.996Z,14.41
2022-11-12T06:05:35.936Z,14.53
2022-11-12T06:08:22.594Z,14.65
2022-11-12T06:11:09.530Z,14.72
2022-11-12T06:13:56.764Z,14.69
2022-11-12T06:16:43.643Z,14.81
2022-11-12T06:19:32.325Z,14.89
2022-11-12T06:22:20.354Z,14.89
2022-11-12T06:25:07.865Z,14.89
2022-11-12T06:27:55.168Z,14.94
2022-11-12T06:30:41.738Z,14.82
2022-11-12T06:33:28.903Z,14.89
2022-11-12T06:36:20.182Z,14.92
2022-11-12T06:39:07.272Z,14.94
2022-11-12T06:41:55.029Z,15.01
2022-11-12T06:44:42.184Z,15.03
2022-11-12T06:47:28.899Z,14.92
2022-11-12T06:50:16.629Z,14.93
2022-11-12T06:53:05.493Z,15.05
2022-11-12T06:55:52.799Z,15.09
2022-11-12T06:58:39.693Z,15.16
2022-11-12T07:01:27.058Z,15.04
2022-11-12T07:04:14.210Z,15.16
2022-11-12T07:07:01.313Z,15.16
2022-11-12T07:09:49.896Z,15.17
2022-11-12T07:12:36.934Z,15.06
2022-11-12T07:15:23.885Z,15.19
2022-11-12T07:18:10.811Z,15.15
2022-11-12T07:21:01.290Z,15.16
2022-11-12T07:23:48.985Z,15.06
2022-11-12T07:26:37.585Z,15.04
2022-11-12T07:29:42.631Z,15.10
2022-11-12T07:32:31.447Z,15.16
2022-11-12T07:35:18.665Z,15.19
2022-11-12T07:38:05.931Z,15.15
2022-11-12T07:40:52.754Z,15.29
2022-11-12T07:43:43.544Z,15.33
2022-11-12T07:46:30.366Z,15.13
2022-11-12T07:49:17.339Z,15.07
2022-11-12T07:52:04.179Z,15.08
2022-11-12T07:54:51.295Z,15.15
2022-11-12T07:57:38.084Z,15.18
2022-11-12T08:00:26.433Z,15.20
2022-11-12T08:03:13.078Z,15.27
2022-11-12T08:06:01.702Z,15.20
2022-11-12T08:08:48.872Z,15.11
2022-11-12T08:11:36.402Z,15.21
2022-11-12T08:14:23.286Z,15.16
2022-11-12T08:17:11.876Z,15.33
2022-11-12T08:19:58.838Z,15.21
2022-11-12T08:22:49.197Z,15.23
2022-11-12T08:25:38.946Z,15.29
2022-11-12T08:28:26.256Z,15.21
2022-11-12T08:31:15.872Z,15.18
2022-11-12T08:34:12.462Z,15.29
2022-11-12T08:36:59.408Z,15.32
2022-11-12T08:39:46.710Z,15.33
2022-11-12T08:42:33.227Z,15.24
2022-11-12T08:45:19.963Z,15.28
2022-11-12T08:48:09.236Z,15.29
2022-11-12T08:50:58.483Z,15.56
2022-11-12T08:53:45.637Z,15.67
2022-11-12T08:56:34.052Z,15.50
2022-11-12T08:59:21.475Z,15.47
2022-11-12T09:02:13.988Z,15.48
2022-11-12T09:05:00.803Z,15.59
2022-11-12T09:07:50.586Z,15.65
2022-11-12T09:10:38.005Z,15.69
2022-11-12T09:13:25.317Z,15.82
2022-11-12T09:16:12.626Z,15.81
2022-11-12T09:18:59.743Z,15.78
2022-11-12T09:21:46.931Z,15.85
2022-11-12T09:24:35.602Z,16.15
2022-11-12T09:27:22.170Z,16.61
2022-11-12T09:30:09.779Z,16.83
2022-11-12T09:32:59.047Z,17.41
2022-11-12T09:35:47.562Z,18.17
2022-11-12T09:38:35.000Z,18.45
2022-11-12T09:41:29.670Z,18.95
2022-11-12T09:44:20.044Z,19.39
2022-11-12T09:47:14.063Z,20.18
2022-11-12T09:50:19.102Z,20.52
2022-11-12T09:53:17.398Z,20.22
2022-11-12T09:56:09.017Z,20.47
2022-11-12T09:58:57.831Z,21.11
2022-11-12T10:01:56.035Z,21.36
2022-11-12T10:04:57.345Z,20.94
2022-11-12T10:08:03.788Z,21.05
2022-11-12T10:10:55.104Z,20.86
2022-11-12T10:13:52.419Z,20.88
2022-11-12T10:16:57.410Z,20.94
2022-11-12T10:19:54.921Z,21.15
2022-11-12T10:23:03.991Z,20.82
2022-11-12T10:25:54.221Z,21.08
2022-11-12T10:28:46.900Z,21.11
2022-11-12T10:31:33.818Z,20.97
2022-11-12T10:34:25.489Z,20.84
2022-11-12T10:37:19.189Z,20.17
2022-11-12T10:40:34.067Z,20.30
2022-11-12T10:43:25.995Z,20.25
2022-11-12T10:46:20.653Z,20.07
2022-11-12T10:49:09.268Z,20.21
2022-11-12T10:51:59.511Z,20.09
2022-11-12T10:54:50.920Z,19.85
2022-11-12T10:57:41.017Z,19.53
2022-11-12T11:00:28.609Z,19.27
2022-11-12T11:03:20.895Z,19.22
2022-11-12T11:06:19.192Z,19.19
2022-11-12T11:09:20.735Z,19.14
2022-11-12T11:12:24.374Z,18.85
2022-11-12T11:15:23.428Z,18.92
2022-11-12T11:18:12.935Z,18.88
2022-11-12T11:21:14.287Z,18.92
2022-11-12T11:24:13.432Z,18.74
2022-11-12T11:27:06.035Z,18.63
2022-11-12T11:30:01.183Z,18.67
2022-11-12T11:33:20.907Z,18.71
2022-11-12T11:36:22.130Z,18.63
2022-11-12T11:39:18.405Z,18.81
2022-11-12T11:42:19.589Z,18.74
2022-11-12T11:45:17.166Z,18.98
2022-11-12T11:48:14.406Z,18.89
2022-11-12T11:51:10.045Z,18.94
2022-11-12T11:54:05.364Z,18.84
2022-11-12T11:56:56.993Z,18.90
2022-11-12T12:00:05.601Z,19.04
2022-11-12T12:03:09.935Z,18.78
2022-11-12T12:06:19.721Z,18.99
2022-11-12T12:09:23.205Z,18.97
2022-11-12T12:12:21.679Z,19.02
2022-11-12T12:15:31.100Z,18.96
2022-11-12T12:18:30.564Z,19.05
2022-11-12T12:21:19.738Z,19.01
2022-11-12T12:24:14.115Z,19.18
2022-11-12T12:27:09.946Z,19.01
2022-11-12T12:30:01.259Z,19.05
2022-11-12T12:32:55.319Z,19.19
2022-11-12T12:35:51.766Z,19.27
2022-11-12T12:38:44.969Z,19.24
2022-11-12T12:41:46.693Z,19.13
2022-11-12T12:45:05.362Z,19.28
2022-11-12T12:47:55.972Z,19.16
2022-11-12T12:50:43.932Z,19.16
2022-11-12T12:53:35.796Z,19.24
2022-11-12T12:56:46.199Z,19.21
2022-11-12T12:59:33.858Z,19.07
2022-11-12T13:02:22.459Z,19.24
2022-11-12T13:05:25.328Z,19.19
2022-11-12T13:08:15.124Z,19.14
2022-11-12T13:11:02.043Z,18.91
2022-11-12T13:13:49.377Z,19.00
2022-11-12T13:16:58.999Z,19.19
2022-11-12T13:19:47.835Z,19.22
2022-11-12T13:22:51.578Z,19.10
2022-11-12T13:25:39.837Z,18.99
2022-11-12T13:28:27.045Z,19.07
2022-11-12T13:31:29.990Z,19.04
2022-11-12T13:34:22.961Z,19.05
2022-11-12T13:37:20.974Z,19.36
2022-11-12T13:40:14.616Z,19.41
2022-11-12T13:43:08.598Z,19.25
2022-11-12T13:46:00.440Z,19.19
2022-11-12T13:48:50.436Z,18.91
2022-11-12T13:51:43.036Z,18.82
2022-11-12T13:54:32.055Z,18.79
2022-11-12T13:57:32.829Z,18.82
2022-11-12T14:00:26.024Z,18.91
2022-11-12T14:03:19.585Z,18.77
2022-11-12T14:06:15.841Z,18.72
2022-11-12T14:09:15.662Z,18.89
2022-11-12T14:12:19.274Z,18.94
2022-11-12T14:15:22.955Z,19.09
2022-11-12T14:18:18.747Z,19.03
2022-11-12T14:21:07.898Z,18.98
2022-11-12T14:23:54.858Z,19.01
2022-11-12T14:26:44.579Z,19.02
2022-11-12T14:29:35.443Z,19.18
2022-11-12T14:32:27.596Z,18.99
2022-11-12T14:35:36.149Z,19.10
2022-11-12T14:38:28.155Z,19.19
2022-11-12T14:41:21.948Z,19.18
2022-11-12T14:44:12.991Z,19.14
2022-11-12T14:47:01.700Z,18.93
2022-11-12T14:49:51.703Z,18.80
2022-11-12T14:52:43.085Z,18.89
2022-11-12T14:55:33.586Z,18.96
2022-11-12T14:58:22.187Z,19.02
2022-11-12T15:04:39.147Z,18.66
2022-11-12T15:07:30.404Z,18.66
2022-11-12T15:10:31.773Z,18.61
2022-11-12T15:13:21.794Z,18.53
2022-11-12T15:16:10.598Z,18.58
2022-11-12T15:19:20.338Z,18.40
2022-11-12T15:22:07.290Z,18.26
2022-11-12T15:24:55.713Z,18.23
2022-11-12T15:27:43.859Z,18.21
2022-11-12T15:30:33.296Z,18.25
2022-11-12T15:33:24.235Z,18.21
2022-11-12T15:36:18.879Z,18.06
2022-11-12T15:39:13.212Z,18.07
2022-11-12T15:42:04.187Z,18.01
2022-11-12T15:44:53.306Z,17.95
2022-11-12T15:47:40.507Z,17.86
2022-11-12T15:50:27.453Z,17.62
2022-11-12T15:53:14.418Z,17.57
2022-11-12T15:56:03.253Z,17.58
2022-11-12T15:59:09.640Z,17.56
2022-11-12T16:05:38.725Z,17.36
2022-11-12T16:08:25.560Z,17.31
2022-11-12T16:11:34.111Z,17.21
2022-11-12T16:14:24.969Z,17.11
2022-11-12T16:17:15.291Z,16.95
2022-11-12T16:20:02.033Z,16.94
2022-11-12T16:22:49.146Z,16.72
2022-11-12T16:25:38.422Z,16.73
2022-11-12T16:28:25.194Z,16.69
2022-11-12T16:31:13.970Z,16.65
2022-11-12T16:34:00.783Z,16.59
2022-11-12T16:36:48.877Z,16.66
2022-11-12T16:39:35.929Z,16.64
2022-11-12T16:42:22.790Z,16.43
2022-11-12T16:45:10.601Z,16.35
2022-11-12T16:48:00.116Z,16.50
2022-11-12T16:50:50.095Z,16.36
2022-11-12T16:53:36.642Z,16.34
2022-11-12T16:56:24.034Z,16.30
2022-11-12T16:59:14.442Z,16.31
2022-11-12T17:02:01.369Z,16.22
2022-11-12T17:04:50.090Z,16.19
2022-11-12T17:07:37.101Z,16.16
2022-11-12T17:10:25.445Z,16.09
2022-11-12T17:13:14.603Z,16.02
2022-11-12T17:16:01.520Z,15.99
2022-11-12T17:18:49.796Z,16.07
2022-11-12T17:21:38.521Z,16.06
2022-11-12T17:24:27.279Z,16.01
2022-11-12T17:27:13.902Z,15.94
2022-11-12T17:30:01.064Z,15.87
2022-11-12T17:32:48.962Z,15.93
2022-11-12T17:35:36.574Z,15.87
2022-11-12T17:38:25.586Z,15.82
2022-11-12T17:41:13.246Z,15.94
2022-11-12T17:44:01.839Z,15.97
2022-11-12T17:46:50.906Z,15.95
2022-11-12T17:49:37.447Z,15.87
2022-11-12T17:52:24.201Z,15.86
2022-11-12T17:55:12.199Z,15.98
2022-11-12T17:57:58.718Z,15.91
2022-11-12T18:00:46.608Z,15.98
2022-11-12T18:03:33.416Z,15.89
2022-11-12T18:06:22.099Z,15.87
2022-11-12T18:09:14.462Z,15.97
2022-11-12T18:12:02.618Z,16.00
2022-11-12T18:14:49.404Z,16.03
2022-11-12T18:17:37.032Z,15.98
2022-11-12T18:20:23.759Z,16.02
2022-11-12T18:23:10.794Z,15.92
2022-11-12T18:25:57.309Z,15.86
2022-11-12T18:28:46.257Z,15.97
2022-11-12T18:31:34.047Z,15.99
2022-11-12T18:34:21.115Z,15.97
2022-11-12T18:37:07.845Z,16.02
2022-11-12T18:39:54.589Z,15.89
2022-11-12T18:42:41.719Z,15.91
2022-11-12T18:45:30.219Z,15.87
2022-11-12T18:48:17.037Z,15.85
2022-11-12T18:51:07.232Z,15.87
2022-11-12T18:53:54.007Z,15.80
2022-11-12T18:56:42.531Z,15.72
2022-11-12T18:59:30.935Z,15.71
2022-11-12T19:02:19.517Z,15.72
2022-11-12T19:05:06.642Z,15.74
2022-11-12T19:07:53.678Z,15.72
2022-11-12T19:10:40.500Z,15.83
2022-11-12T19:13:27.608Z,15.79
2022-11-12T19:16:17.240Z,15.68
2022-11-12T19:19:05.598Z,15.72
2022-11-12T19:21:52.257Z,15.71
2022-11-12T19:24:39.302Z,15.63
2022-11-12T19:27:26.086Z,15.54
2022-11-12T19:30:14.739Z,15.60
2022-11-12T19:33:01.219Z,15.67
2022-11-12T19:35:49.265Z,15.65
2022-11-12T19:38:36.115Z,15.65
2022-11-12T19:41:23.157Z,15.56
2022-11-12T19:44:10.387Z,15.57
2022-11-12T19:46:58.959Z,15.40
2022-11-12T19:49:46.176Z,15.49
2022-11-12T19:52:34.444Z,15.36
2022-11-12T19:55:21.427Z,15.40
2022-11-12T19:58:08.351Z,15.43
2022-11-12T20:00:55.193Z,15.40
2022-11-12T20:03:42.241Z,15.45
2022-11-12T20:06:30.825Z,15.47
2022-11-12T20:09:19.091Z,15.46
2022-11-12T20:12:07.375Z,15.48
2022-11-12T20:14:53.992Z,15.43
2022-11-12T20:17:41.004Z,15.40
2022-11-12T20:20:28.067Z,15.28
2022-11-12T20:23:14.761Z,15.39
2022-11-12T20:26:07.902Z,15.34
2022-11-12T20:28:54.625Z,15.21
2022-11-12T20:31:42.036Z,15.25
2022-11-12T20:34:28.627Z,15.30
2022-11-12T20:37:15.251Z,15.23
2022-11-12T20:40:02.140Z,15.22
2022-11-12T20:42:51.987Z,15.15
2022-11-12T20:45:39.832Z,15.24
2022-11-12T20:48:26.829Z,15.07
2022-11-12T20:51:25.254Z,15.09
2022-11-12T20:54:12.296Z,15.21
2022-11-12T20:57:01.168Z,15.08
2022-11-12T20:59:51.544Z,15.12
2022-11-12T21:02:38.583Z,15.08
2022-11-12T21:05:26.046Z,15.01
2022-11-12T21:08:12.891Z,15.03
2022-11-12T21:11:01.253Z,15.13
2022-11-12T21:13:48.410Z,15.18
2022-11-12T21:16:36.853Z,15.03
2022-11-12T21:19:23.811Z,15.05
2022-11-12T21:22:10.536Z,15.17
2022-11-12T21:24:58.261Z,15.11
2022-11-12T21:27:45.205Z,15.09
2022-11-12T21:30:32.397Z,15.08
2022-11-12T21:33:21.217Z,15.09
2022-11-12T21:36:14.786Z,15.19
2022-11-12T21:39:03.042Z,15.19
2022-11-12T21:41:49.949Z,15.31
2022-11-12T21:44:36.756Z,15.27
2022-11-12T21:47:23.739Z,15.28
2022-11-12T21:50:12.502Z,15.23
2022-11-12T21:52:59.209Z,15.23
2022-11-12T21:55:45.719Z,15.19
2022-11-12T21:58:32.756Z,15.22
2022-11-12T22:01:21.425Z,15.20
2022-11-12T22:04:10.949Z,15.16
2022-11-12T22:07:02.538Z,15.20
2022-11-12T22:09:53.806Z,15.31
2022-11-12T22:13:04.838Z,15.22
2022-11-12T22:15:53.095Z,15.23
2022-11-12T22:18:41.997Z,15.14
2022-11-12T22:21:35.430Z,15.14
2022-11-12T22:24:26.654Z,15.15
2022-11-12T22:27:13.601Z,15.17
2022-11-12T22:30:01.179Z,15.11
2022-11-12T22:32:47.855Z,15.06
2022-11-12T22:35:35.635Z,15.06
2022-11-12T22:38:22.205Z,15.14
2022-11-12T22:41:12.760Z,15.13
2022-11-12T22:44:01.206Z,15.09
2022-11-12T22:46:47.942Z,15.11
2022-11-12T22:49:35.062Z,15.05
2022-11-12T22:52:21.694Z,15.04
2022-11-12T22:55:09.173Z,14.98
2022-11-12T22:58:00.640Z,14.99
2022-11-12T23:00:48.034Z,15.00
2022-11-12T23:03:35.822Z,15.11
2022-11-12T23:06:23.261Z,15.04
2022-11-12T23:09:14.651Z,15.07
2022-11-12T23:12:02.812Z,15.04
2022-11-12T23:14:51.567Z,15.04
2022-11-12T23:17:38.390Z,15.06
2022-11-12T23:20:25.182Z,15.10
2022-11-12T23:23:11.862Z,15.08
2022-11-12T23:26:03.962Z,15.02
2022-11-12T23:28:50.648Z,15.07
2022-11-12T23:31:40.574Z,15.05
2022-11-12T23:34:27.791Z,15.02
2022-11-12T23:37:14.324Z,14.97
2022-11-12T23:40:00.894Z,14.96
2022-11-12T23:42:47.595Z,14.96
2022-11-12T23:45:37.493Z,15.02
2022-11-12T23:48:26.759Z,14.88
2022-11-12T23:51:15.696Z,14.96
2022-11-12T23:54:03.039Z,14.98
2022-11-12T23:56:49.987Z,14.84
2022-11-12T23:59:37.385Z,14.80
